Data for 01/12/2016

Time Sea-Level Adjusted Pressure Absolute Pressure Temperature Relative Humidity Dew Point   
(mb) (inHg) (mb) (inHg) (C) (F) (%) (C) (F)
00:05 1021 30.15 851 25.13 -5.6 21.9 49 -14.8 5.3
00:10 1021 30.15 851 25.13 -5.5 22.1 48 -14.8 5.4
00:15 1021 30.15 851 25.13 -5.6 22 47 -15.1 4.8
00:20 1021 30.15 851 25.13 -5.2 22.6 45 -15.5 4
00:25 1022 30.18 851 25.13 -5.1 22.9 47 -14.7 5.5
00:30 1022 30.18 851 25.13 -5.4 22.4 54 -13.4 7.9
00:35 1022 30.18 851 25.13 -5.8 21.5 58 -12.7 9.1
00:40 1022 30.18 851 25.13 -6 21.2 57 -13.2 8.3
00:45 1022 30.18 851 25.13 -6 21.2 56 -13.5 7.6
00:50 1022 30.18 851 25.13 -6 21.2 59 -12.7 9.2
00:55 1022 30.18 851 25.13 -5.9 21.3 61 -12.4 9.8
01:00 1022 30.18 851 25.13 -6.2 20.9 57 -13.4 7.8
01:05 1022 30.18 851 25.13 -5.9 21.3 53 -14.1 6.6
01:10 1022 30.18 851 25.13 -5.8 21.5 59 -12.6 9.3
01:15 1022 30.18 851 25.13 -6 21.2 62 -12.1 10.2
01:20 1022 30.18 851 25.13 -6.1 21 63 -12 10.4
01:25 1022 30.18 851 25.13 -6.1 21.1 66 -11.4 11.4
01:30 1021 30.15 851 25.13 -6.5 20.3 68 -11.4 11.4
01:35 1021 30.15 851 25.13 -7.1 19.3 70 -11.6 11.1
01:40 1021 30.15 851 25.13 -7.4 18.6 71 -11.8 10.7
01:45 1021 30.15 851 25.13 -7.4 18.8 70 -12 10.4
01:50 1021 30.15 851 25.13 -7.5 18.5 71 -11.9 10.7
01:55 1021 30.15 851 25.13 -7.6 18.4 76 -11.1 12
02:00 1022 30.18 851 25.13 -7.5 18.5 75 -11.2 11.9
02:05 1021 30.15 851 25.13 -7.4 18.7 69 -12.2 10.1
02:10 1022 30.18 851 25.13 -7 19.4 67 -12.1 10.2
02:15 1022 30.18 851 25.13 -6.8 19.7 66 -12.1 10.2
02:20 1022 30.18 851 25.13 -6.9 19.6 66 -12.3 9.9
02:25 1022 30.18 851 25.13 -6.8 19.7 66 -12.2 10
02:30 1021 30.15 851 25.13 -6.7 19.9 64 -12.5 9.5
02:35 1022 30.18 851 25.13 -6.5 20.3 64 -12.1 10.1
02:40 1022 30.18 851 25.13 -6.4 20.5 67 -11.6 11.1
02:45 1021 30.15 851 25.13 -6.6 20.1 69 -11.3 11.6
02:50 1021 30.15 851 25.13 -6.7 20 66 -12 10.3
02:55 1021 30.15 851 25.13 -6.6 20.1 64 -12.4 9.7
03:00 1022 30.18 851 25.13 -6.6 20.2 62 -12.7 9.2
03:05 1022 30.18 851 25.13 -5.9 21.3 59 -12.7 9.2
03:10 1022 30.18 851 25.13 -5.6 22 59 -12.4 9.7
03:15 1022 30.18 851 25.13 -5.3 22.5 55 -12.9 8.7
03:20 1022 30.18 851 25.13 -4.9 23.2 56 -12.5 9.6
03:25 1022 30.18 851 25.13 -4.5 23.9 53 -12.8 9
03:30 1022 30.18 851 25.13 -4.5 23.9 56 -11.9 10.5
03:35 1022 30.18 851 25.13 -4.7 23.6 54 -12.6 9.3
03:40 1022 30.18 851 25.13 -4.6 23.7 64 -10.4 13.2
03:45 1022 30.18 851 25.13 -5.2 22.6 64 -11 12.3
03:50 1022 30.18 851 25.13 -5.5 22.1 65 -11 12.2
03:55 1022 30.18 851 25.13 -5.7 21.8 63 -11.5 11.2
04:00 1022 30.18 851 25.13 -5.6 21.9 64 -11.3 11.6
04:05 1022 30.18 851 25.13 -5.5 22.1 64 -11.3 11.7
04:10 1022 30.18 851 25.13 -5.4 22.3 62 -11.7 11
04:15 1022 30.18 851 25.13 -5.2 22.6 58 -12.3 9.9
04:20 1022 30.18 851 25.13 -5.2 22.6 56 -12.6 9.3
04:25 1022 30.18 851 25.13 -5.2 22.7 58 -12.3 9.9
04:30 1022 30.18 851 25.13 -5.2 22.6 56 -12.6 9.3
04:35 1022 30.18 851 25.13 -5.1 22.8 55 -12.8 8.9
04:40 1022 30.18 851 25.13 -5 23 56 -12.5 9.5
04:45 1022 30.18 851 25.13 -5 23 55 -12.7 9.1
04:50 1022 30.18 851 25.13 -5.1 22.9 57 -12.3 9.8
04:55 1022 30.18 851 25.13 -5.1 22.9 53 -13.3 8
05:00 1022 30.18 851 25.13 -5 22.9 51 -13.8 7.2
05:05 1022 30.18 851 25.13 -5.1 22.8 48 -14.4 6.1
05:10 1022 30.18 851 25.13 -5 22.9 54 -13 8.5
05:15 1021 30.15 851 25.13 -5.1 22.8 59 -12 10.4
05:20 1021 30.15 851 25.13 -5.4 22.4 59 -12.2 10.1
05:25 1021 30.15 851 25.13 -5.3 22.4 56 -12.9 8.8
05:30 1022 30.18 851 25.13 -5.2 22.7 56 -12.6 9.3
05:35 1021 30.15 851 25.13 -5 23 57 -12.3 9.9
05:40 1021 30.15 851 25.13 -4.9 23.1 52 -13.2 8.2
05:45 1021 30.15 851 25.13 -4.7 23.5 53 -12.9 8.8
05:50 1021 30.15 851 25.13 -4.7 23.6 54 -12.7 9.1
05:55 1022 30.18 851 25.13 -4.7 23.5 54 -12.6 9.3
06:00 1022 30.18 851 25.13 -4.8 23.3 56 -12.4 9.8
06:05 1022 30.18 851 25.13 -5 23 56 -12.4 9.7
06:10 1022 30.18 851 25.13 -5.1 22.7 56 -12.6 9.4
06:15 1022 30.18 851 25.13 -5.2 22.7 57 -12.5 9.5
06:20 1022 30.18 851 25.13 -5.1 22.8 56 -12.6 9.3
06:25 1022 30.18 851 25.13 -5.1 22.8 56 -12.5 9.5
06:30 1022 30.18 851 25.13 -5.2 22.6 59 -12 10.4
06:35 1022 30.18 851 25.13 -5.5 22.1 61 -12 10.5
06:40 1021 30.15 851 25.13 -5.7 21.7 61 -12.1 10.3
06:45 1022 30.18 851 25.13 -5.7 21.7 62 -11.9 10.6
06:50 1021 30.15 851 25.13 -5.6 22 59 -12.3 9.8
06:55 1022 30.18 851 25.13 -5.3 22.4 58 -12.4 9.6
07:00 1021 30.15 851 25.13 -5.1 22.9 56 -12.5 9.5
07:05 1021 30.15 851 25.13 -4.8 23.4 57 -12 10.3
07:10 1021 30.15 851 25.13 -4.7 23.6 55 -12.4 9.7
07:15 1021 30.15 850 25.1 -4.8 23.4 56 -12.2 10
07:20 1021 30.15 850 25.1 -4.9 23.3 55 -12.7 9.2
07:25 1021 30.15 850 25.1 -4.5 24 55 -12.3 9.8
07:30 1021 30.15 851 25.13 -4.3 24.2 56 -12 10.5
07:35 1021 30.15 851 25.13 -4.3 24.2 56 -11.8 10.7
07:40 1021 30.15 850 25.1 -4.3 24.2 55 -12.1 10.3
07:45 1021 30.15 850 25.1 -4.2 24.5 55 -11.9 10.5
07:50 1021 30.15 851 25.13 -4.1 24.6 54 -12 10.3
07:55 1021 30.15 851 25.13 -4.1 24.6 58 -11.2 11.9
08:00 1021 30.15 851 25.13 -4.3 24.3 56 -11.8 10.8
08:05 1021 30.15 850 25.1 -4.3 24.3 56 -11.7 10.9
08:10 1021 30.15 850 25.1 -4.3 24.2 57 -11.7 11
08:15 1021 30.15 850 25.1 -4.3 24.3 58 -11.4 11.5
08:20 1021 30.15 850 25.1 -4.3 24.3 60 -11 12.2
08:25 1021 30.15 850 25.1 -4.6 23.7 59 -11.4 11.5
08:30 1021 30.15 850 25.1 -4.8 23.4 60 -11.4 11.5
08:35 1021 30.15 850 25.1 -4.5 23.9 58 -11.6 11.1
08:40 1021 30.15 850 25.1 -4.1 24.7 57 -11.4 11.5
08:45 1021 30.15 850 25.1 -3.6 25.4 58 -10.7 12.8
08:50 1021 30.15 851 25.13 -3.3 26.1 57 -10.5 13
08:55 1021 30.15 851 25.13 -2.9 26.8 57 -10.3 13.5
09:00 1021 30.15 851 25.13 -2.8 27 58 -10 14
09:05 1022 30.18 851 25.13 -2.7 27.2 58 -9.9 14.2
09:10 1022 30.18 851 25.13 -2.5 27.5 58 -9.6 14.7
09:15 1021 30.15 851 25.13 -2.3 27.8 59 -9.4 15.1
09:20 1021 30.15 851 25.13 -2.3 27.9 59 -9.3 15.3
09:25 1021 30.15 851 25.13 -2.3 27.8 59 -9.3 15.2
09:30 1021 30.15 851 25.13 -2.4 27.6 59 -9.4 15.1
09:35 1021 30.15 851 25.13 -2.4 27.7 59 -9.3 15.2
09:40 1021 30.15 851 25.13 -2.3 27.9 59 -9.2 15.4
09:45 1021 30.15 850 25.1 -1.8 28.8 57 -9.2 15.5
09:50 1021 30.15 850 25.1 -1.4 29.4 57 -8.8 16.2
09:55 1021 30.15 850 25.1 -0.9 30.4 55 -8.9 16
10:00 1021 30.15 850 25.1 -0.2 31.7 52 -8.8 16.2
10:05 1021 30.15 850 25.1 0.2 32.4 51 -8.7 16.3
10:10 1021 30.15 850 25.1 0.3 32.6 51 -8.7 16.4
10:15 1021 30.15 850 25.1 0.3 32.5 51 -8.6 16.5
10:20 1021 30.15 850 25.1 0.3 32.5 52 -8.6 16.5
10:25 1021 30.15 850 25.1 0.3 32.5 51 -8.7 16.3
10:30 1021 30.15 850 25.1 0.1 32.2 52 -8.7 16.3
10:35 1021 30.15 850 25.1 -0.1 31.8 52 -8.7 16.3
10:40 1021 30.15 851 25.13 -0.3 31.4 53 -8.7 16.3
10:45 1021 30.15 851 25.13 -0.4 31.3 54 -8.7 16.4
10:50 1021 30.15 851 25.13 -0.3 31.4 55 -8.4 16.9
10:55 1022 30.18 851 25.13 -0.4 31.4 55 -8.3 17.1
11:00 1022 30.18 851 25.13 -0.7 30.7 56 -8.3 17
11:05 1022 30.18 851 25.13 -0.9 30.5 56 -8.5 16.7
11:10 1022 30.18 851 25.13 -0.8 30.6 55 -8.6 16.5
11:15 1022 30.18 851 25.13 -0.6 31 55 -8.5 16.7
11:20 1022 30.18 851 25.13 -0.4 31.3 55 -8.3 17
11:25 1022 30.18 851 25.13 -0.3 31.5 55 -8.3 17
11:30 1022 30.18 851 25.13 -0.1 31.9 53 -8.5 16.8
11:35 1022 30.18 851 25.13 0.3 32.6 52 -8.4 16.9
11:40 1022 30.18 851 25.13 0.7 33.3 51 -8.2 17.3
11:45 1022 30.18 851 25.13 1.1 34 50 -8.1 17.4
11:50 1022 30.18 851 25.13 1.3 34.4 50 -8 17.6
11:55 1022 30.18 851 25.13 1.6 34.9 49 -8 17.6
12:00 1022 30.18 851 25.13 1.9 35.4 50 -7.6 18.4
12:05 1022 30.18 851 25.13 1.7 35.1 50 -7.6 18.2
12:10 1022 30.18 851 25.13 1.3 34.3 51 -7.8 17.9
12:15 1022 30.18 851 25.13 1 33.8 51 -8 17.7
12:20 1022 30.18 851 25.13 1.1 33.9 53 -7.4 18.8
12:25 1022 30.18 851 25.13 1.6 34.9 48 -8.2 17.2
12:30 1022 30.18 851 25.13 2.1 35.7 48 -7.9 17.8
12:35 1022 30.18 851 25.13 2.2 36 47 -8 17.6
12:40 1022 30.18 851 25.13 2.4 36.3 47 -7.8 18
12:45 1022 30.18 851 25.13 2.3 36.1 47 -7.8 17.9
12:50 1022 30.18 851 25.13 2.5 36.4 47 -7.7 18.2
12:55 1022 30.18 851 25.13 2.6 36.6 47 -7.6 18.4
13:00 1022 30.18 851 25.13 2.8 37 47 -7.3 18.8
13:05 1022 30.18 851 25.13 2.7 36.9 48 -7.2 19
13:10 1022 30.18 851 25.13 2.8 37.1 46 -7.7 18.1
13:15 1022 30.18 851 25.13 3.5 38.2 44 -7.6 18.3
13:20 1021 30.15 851 25.13 3.8 38.8 45 -7.1 19.2
13:25 1021 30.15 851 25.13 3.6 38.5 43 -7.7 18.1
13:30 1021 30.15 851 25.13 4 39.3 44 -7.2 19.1
13:35 1021 30.15 851 25.13 4.5 40.1 42 -7.5 18.6
13:40 1021 30.15 851 25.13 4.8 40.7 40 -7.5 18.5
13:45 1021 30.15 850 25.1 4.8 40.6 41 -7.4 18.7
13:50 1021 30.15 850 25.1 4.5 40 41 -7.6 18.4
13:55 1021 30.15 850 25.1 4.7 40.5 40 -7.8 18
14:00 1021 30.15 850 25.1 4.6 40.3 40 -8 17.6
14:05 1021 30.15 850 25.1 4.7 40.4 41 -7.5 18.5
14:10 1021 30.15 850 25.1 4.3 39.8 41 -7.6 18.3
14:15 1021 30.15 850 25.1 4.2 39.6 43 -7.2 19
14:20 1021 30.15 850 25.1 4 39.2 43 -7.4 18.7
14:25 1021 30.15 850 25.1 4.1 39.4 43 -7.4 18.7
14:30 1021 30.15 850 25.1 4.2 39.5 44 -7.2 19.1
14:35 1021 30.15 850 25.1 4.1 39.4 42 -7.8 18
14:40 1021 30.15 850 25.1 4.5 40.1 42 -7.4 18.6
14:45 1021 30.15 850 25.1 4.3 39.8 42 -7.4 18.7
14:50 1021 30.15 850 25.1 4.5 40.2 42 -7.4 18.6
14:55 1021 30.15 850 25.1 4.6 40.2 43 -7 19.4
15:00 1021 30.15 850 25.1 4.5 40.1 43 -7.2 19.1
15:05 1021 30.15 850 25.1 4.5 40.1 42 -7.3 18.9
15:10 1021 30.15 850 25.1 4.4 39.9 42 -7.4 18.6
15:15 1021 30.15 850 25.1 4.3 39.8 44 -6.8 19.7
15:20 1021 30.15 850 25.1 3.9 39 47 -6.5 20.3
15:25 1021 30.15 850 25.1 3.4 38.2 46 -7.1 19.2
15:30 1021 30.15 850 25.1 3.8 38.9 44 -7.3 18.8
15:35 1021 30.15 850 25.1 4.3 39.8 42 -7.4 18.6
15:40 1020 30.12 850 25.1 4.4 39.8 41 -7.7 18.2
15:45 1020 30.12 850 25.1 4.4 39.9 43 -7.2 19
15:50 1020 30.12 850 25.1 4.4 39.9 43 -7.3 18.9
15:55 1020 30.12 850 25.1 4.5 40 46 -6.1 21.1
16:00 1020 30.12 850 25.1 3.2 37.7 50 -6.2 20.8
16:05 1020 30.12 850 25.1 2.7 36.8 50 -6.7 20
16:10 1020 30.12 850 25.1 2.9 37.1 49 -6.8 19.8
16:15 1020 30.12 849 25.07 3.2 37.7 47 -7 19.5
16:20 1020 30.12 849 25.07 3.2 37.8 47 -6.9 19.6
16:25 1020 30.12 849 25.07 3.4 38.1 46 -7.1 19.3
16:30 1020 30.12 849 25.07 3.2 37.8 47 -7.1 19.1
16:35 1020 30.12 849 25.07 3 37.5 47 -7.1 19.2
16:40 1020 30.12 849 25.07 2.9 37.1 48 -7.1 19.2
16:45 1020 30.12 849 25.07 2.7 36.8 48 -7.2 19.1
16:50 1020 30.12 849 25.07 2.8 37 48 -7.2 19.1
16:55 1020 30.12 849 25.07 2.8 37 48 -7.3 18.8
17:00 1020 30.12 850 25.1 2.8 37 49 -6.9 19.5
17:05 1020 30.12 849 25.07 2.5 36.5 50 -7 19.3
17:10 1020 30.12 849 25.07 2.1 35.9 53 -6.6 20.2
17:15 1020 30.12 849 25.07 1.8 35.2 53 -6.8 19.7
17:20 1020 30.12 850 25.1 1.7 35 52 -7.1 19.2
17:25 1020 30.12 849 25.07 1.8 35.2 53 -6.8 19.8
17:30 1020 30.12 849 25.07 1.7 35 52 -7.1 19.2
17:35 1020 30.12 849 25.07 1.1 34 54 -7.1 19.3
17:40 1020 30.12 849 25.07 0.4 32.7 56 -7.4 18.7
17:45 1020 30.12 849 25.07 0.3 32.5 56 -7.6 18.3
17:50 1020 30.12 849 25.07 0.4 32.7 55 -7.7 18.2
17:55 1020 30.12 849 25.07 0.4 32.6 55 -7.6 18.3
18:00 1020 30.12 849 25.07 0.4 32.7 54 -7.9 17.9
18:05 1020 30.12 849 25.07 0.5 32.9 54 -7.7 18.1
18:10 1020 30.12 849 25.07 0.6 33.1 54 -7.7 18.1
18:15 1020 30.12 849 25.07 0.7 33.3 54 -7.5 18.5
18:20 1020 30.12 849 25.07 0.6 33.1 54 -7.6 18.4
18:25 1020 30.12 849 25.07 0.6 33 56 -7.2 19.1
18:30 1020 30.12 849 25.07 0.1 32.1 57 -7.4 18.6
18:35 1020 30.12 849 25.07 -0.3 31.4 58 -7.7 18.2
18:40 1020 30.12 849 25.07 -0.4 31.2 57 -7.9 17.7
18:45 1020 30.12 849 25.07 -0.7 30.8 59 -7.7 18.1
18:50 1020 30.12 849 25.07 -1 30.2 62 -7.3 18.9
18:55 1020 30.12 849 25.07 -1 30.2 59 -8 17.6
19:00 1020 30.12 849 25.07 -0.9 30.4 62 -7.3 18.9
19:05 1020 30.12 849 25.07 -0.5 31 57 -8 17.6
19:10 1020 30.12 849 25.07 -0.4 31.3 57 -8 17.7
19:15 1020 30.12 849 25.07 -0.6 31 60 -7.4 18.7
19:20 1020 30.12 849 25.07 -1.1 30 64 -7.1 19.3
19:25 1020 30.12 849 25.07 -1.1 30 61 -7.8 18
19:30 1020 30.12 849 25.07 -1.5 29.2 61 -8 17.6
19:35 1020 30.12 849 25.07 -2 28.3 63 -8.1 17.4
19:40 1020 30.12 849 25.07 -2.7 27.2 66 -8.2 17.2
19:45 1020 30.12 849 25.07 -2.7 27.1 64 -8.5 16.6
19:50 1020 30.12 849 25.07 -2.6 27.3 64 -8.4 16.8
19:55 1019 30.09 849 25.07 -2.2 28 62 -8.5 16.7
20:00 1019 30.09 849 25.07 -1.9 28.6 61 -8.5 16.6
20:05 1019 30.09 849 25.07 -1.8 28.7 61 -8.3 17
20:10 1019 30.09 849 25.07 -2.1 28.3 62 -8.3 17
20:15 1019 30.09 849 25.07 -1.7 28.9 60 -8.4 16.9
20:20 1019 30.09 849 25.07 -1.2 29.8 59 -8.2 17.2
20:25 1019 30.09 848 25.04 -1.4 29.6 60 -8.1 17.3
20:30 1019 30.09 849 25.07 -1.5 29.3 61 -8.1 17.4
20:35 1019 30.09 848 25.04 -1.5 29.2 61 -8.1 17.3
20:40 1019 30.09 848 25.04 -1.6 29.1 62 -8 17.6
20:45 1019 30.09 848 25.04 -1.7 28.9 62 -8.1 17.5
20:50 1019 30.09 848 25.04 -1.7 29 62 -7.9 17.7
20:55 1019 30.09 848 25.04 -1.9 28.6 63 -8 17.6
21:00 1019 30.09 848 25.04 -1.7 28.9 63 -8 17.7
21:05 1019 30.09 848 25.04 -1.6 29.2 61 -8.1 17.4
21:10 1019 30.09 848 25.04 -1.3 29.7 62 -7.7 18.1
21:15 1019 30.09 848 25.04 -1.3 29.6 62 -7.7 18.2
21:20 1019 30.09 848 25.04 -1.6 29.1 63 -7.8 17.9
21:25 1019 30.09 848 25.04 -1.7 28.9 64 -7.7 18.1
21:30 1019 30.09 848 25.04 -2.4 27.7 66 -7.9 17.7
21:35 1018 30.06 848 25.04 -2.9 26.8 67 -8.1 17.4
21:40 1018 30.06 848 25.04 -2.3 27.8 65 -8.1 17.4
21:45 1018 30.06 848 25.04 -1.7 28.9 61 -8.4 17
21:50 1018 30.06 847 25.01 -1.4 29.4 61 -7.9 17.8
21:55 1018 30.06 847 25.01 -1.2 29.8 60 -8.1 17.5
22:00 1018 30.06 847 25.01 -1.6 29.2 63 -7.8 18
22:05 1018 30.06 847 25.01 -2.1 28.3 64 -8 17.5
22:10 1018 30.06 847 25.01 -2.1 28.2 62 -8.4 16.9
22:15 1018 30.06 847 25.01 -1 30.1 58 -8.3 17
22:20 1018 30.06 847 25.01 -1.2 29.8 60 -7.9 17.8
22:25 1018 30.06 847 25.01 -1.6 29 61 -8.1 17.3
22:30 1018 30.06 847 25.01 -1.4 29.4 59 -8.4 16.8
22:35 1018 30.06 847 25.01 -1.1 30 59 -8.2 17.3
22:40 1018 30.06 847 25.01 -1.3 29.7 60 -8.1 17.3
22:45 1018 30.06 847 25.01 -1.2 29.8 59 -8.2 17.2
22:50 1018 30.06 847 25.01 -1.4 29.5 59 -8.3 17.1
22:55 1018 30.06 847 25.01 -1.3 29.7 59 -8.4 16.9
23:00 1018 30.06 847 25.01 -1.3 29.6 59 -8.3 17.1
23:05 1018 30.06 847 25.01 -1.4 29.5 59 -8.4 16.9
23:10 1018 30.06 847 25.01 -1.4 29.5 59 -8.3 17
23:15 1017 30.03 847 25.01 -1.5 29.4 60 -8.2 17.2
23:20 1017 30.03 847 25.01 -1.5 29.3 59 -8.4 16.9
23:25 1017 30.03 847 25.01 -1.5 29.3 60 -8.3 17
23:30 1017 30.03 847 25.01 -1.7 28.9 60 -8.4 16.9
23:35 1017 30.03 846 24.98 -1.6 29.1 60 -8.4 16.8
23:40 1017 30.03 846 24.98 -1.4 29.6 59 -8.3 17
23:45 1017 30.03 846 24.98 -1.5 29.3 60 -8.4 16.9
23:50 1017 30.03 846 24.98 -1.6 29.1 60 -8.4 16.9
23:55 1017 30.03 846 24.98 -1.6 29.1 61 -8.3 17.1
24:00 1017 30.03 846 24.98 -1.5 29.3 60 -8.3 17